Friday, July 20, 2018, 12:28 PM EDT
Back to Local

KBFD, Bradford Regional Airport

Location: Cyclone, PA, United States Lat: 41.8
Local Time: 12:28 PM EDT (16:28 GMT) Lon: -78.633
Time Zone: US/Eastern Elev: 2142 ft

Show me the last for .
Show Decoded

2018-07-20 11:53 METAR KBFD 201553Z AUTO 16009G15KT 10SM SCT045 24/13 A3010 RMK AO2 SLP180
                 T02440128 =
2018-07-20 10:53 METAR KBFD 201453Z AUTO 17010KT 130V200 10SM CLR 24/13 A3011 RMK AO2 SLP184
                 T02390128 58004 =
2018-07-20 09:53 METAR KBFD 201353Z AUTO VRB05G15KT 10SM CLR 22/14 A3012 RMK AO2 SLP188 T02220139
                 =
2018-07-20 08:53 METAR KBFD 201253Z AUTO 15006KT 10SM CLR 21/14 A3013 RMK AO2 SLP190 T02060144 =
2018-07-20 07:53 METAR KBFD 201153Z AUTO 13006KT 10SM CLR 18/14 A3012 RMK AO2 SLP184 T01780144
                 10178 20111 51003 =
2018-07-20 06:53 METAR KBFD 201053Z AUTO 12005KT 10SM CLR 13/12 A3012 RMK AO2 SLP187 T01330122 =
2018-07-20 05:53 METAR KBFD 200953Z AUTO 12003KT 10SM CLR 12/11 A3012 RMK AO2 SLP187 T01170111 =
2018-07-20 04:53 METAR KBFD 200853Z AUTO 11003KT 10SM CLR 12/11 A3011 RMK AO2 SLP185 T01170111
                 55000 =
2018-07-20 03:53 METAR KBFD 200753Z AUTO 00000KT 8SM CLR 12/11 A3011 RMK AO2 SLP185 T01170111 =
2018-07-20 02:53 METAR KBFD 200653Z AUTO 13003KT 10SM CLR 12/12 A3011 RMK AO2 SLP184 T01220117 =
2018-07-20 01:53 METAR KBFD 200553Z AUTO 00000KT 10SM CLR 12/12 A3011 RMK AO2 SLP186 T01220122
                 10239 20122 58004 =
2018-07-20 00:53 METAR KBFD 200453Z AUTO 00000KT 10SM CLR 13/13 A3013 RMK AO2 SLP191 T01330128
                 402610078 =
2018-07-19 23:53 METAR KBFD 200353Z AUTO 00000KT 10SM CLR 14/12 A3013 RMK AO2 SLP192 T01390122 =
2018-07-19 22:53 METAR KBFD 200253Z AUTO 12003KT 10SM CLR 14/13 A3012 RMK AO2 SLP192 T01390128
                 53006 =
2018-07-19 21:53 METAR KBFD 200153Z AUTO 00000KT 10SM CLR 16/13 A3012 RMK AO2 SLP190 T01560133 =
2018-07-19 20:53 METAR KBFD 200053Z AUTO 00000KT 10SM CLR 18/14 A3011 RMK AO2 SLP183 T01830139 =
2018-07-19 19:53 METAR KBFD 192353Z AUTO 00000KT 10SM CLR 24/12 A3010 RMK AO2 SLP183 T02390117
                 10261 20239 56002 =
2018-07-19 18:53 METAR KBFD 192253Z AUTO VRB03KT 10SM CLR 25/11 A3011 RMK AO2 SLP187 T02500106 =
2018-07-19 17:53 METAR KBFD 192153Z AUTO 20003KT 10SM CLR 26/09 A3010 RMK AO2 SLP186 T02560094 =
2018-07-19 16:53 METAR KBFD 192053Z AUTO 21005KT 10SM CLR 26/09 A3011 RMK AO2 SLP188 T02560094
                 56011 =
2018-07-19 15:53 METAR KBFD 191953Z AUTO 10SM CLR 26/09 A3012 RMK AO2 SLP192 T02560094 =
2018-07-19 14:53 METAR KBFD 191853Z AUTO VRB03KT 10SM CLR 25/09 A3013 RMK AO2 SLP195 T02500089 =
2018-07-19 13:53 METAR KBFD 191753Z AUTO VRB03KT 10SM CLR 24/11 A3015 RMK AO2 SLP198 T02390106
                 10244 20122 57008 =
2018-07-19 12:53 METAR KBFD 191653Z AUTO VRB03KT 10SM CLR 23/10 A3016 RMK AO2 SLP203 T02280100 =

Support USWX by starting your Amazon purchase here.